EZY49RE LGPZ-EGKK
Flight info
| Callsign | EZY49RE |
|---|---|
| Flight time | 3h 5m |
| Altitude | 36000 |
| Route | MALED UM127 KRK UL995 TIGRA DCT DOLON DCT PIKEL DCT UVOKA DCT PISIP DCT AMLON DCT RESIA DCT ARGAX DCT LOKTA DCT TEDGO DCT KRH DCT LIRSU DCT SPI DCT NIK L610 TEBRA |
| Aircraft | A320/M-SDE2E3FGHIJ1RWXYZ/LB1 |
Departure
| Time | 2026-04-23 07:45 |
|---|---|
| Airport | Aktion National Airport (LGPZ) |
Arrival
| Time | 2026-04-23 10:51 |
|---|---|
| Airport | London Gatwick Airport (EGKK) |
| Time | Latitude | Longitude | Altitude | Speed | Heading |
|---|---|---|---|---|---|
| 2026-04-23 07:25 | 38.93024 | 20.77241 | 19 ft | 0 kts | 339° |
| 2026-04-23 07:35 | 38.93004 | 20.77251 | 18 ft | 4 kts | 338° |
| 2026-04-23 07:35 | 38.92979 | 20.77265 | 18 ft | 4 kts | 328° |
| 2026-04-23 07:35 | 38.92960 | 20.77287 | 20 ft | 4 kts | 296° |
| 2026-04-23 07:35 | 38.92956 | 20.77314 | 18 ft | 2 kts | 248° |
| 2026-04-23 07:36 | 38.92958 | 20.77320 | 18 ft | 0 kts | 248° |
| 2026-04-23 07:38 | 38.92941 | 20.77266 | 20 ft | 8 kts | 248° |
| 2026-04-23 07:38 | 38.92900 | 20.77207 | 18 ft | 14 kts | 188° |
| 2026-04-23 07:38 | 38.92795 | 20.77218 | 17 ft | 15 kts | 218° |
| 2026-04-23 07:38 | 38.92722 | 20.77147 | 17 ft | 12 kts | 182° |
| 2026-04-23 07:39 | 38.92639 | 20.77159 | 18 ft | 17 kts | 195° |
| 2026-04-23 07:39 | 38.92582 | 20.77033 | 21 ft | 16 kts | 248° |
| 2026-04-23 07:39 | 38.92543 | 20.76912 | 20 ft | 14 kts | 248° |
| 2026-04-23 07:39 | 38.92511 | 20.76811 | 20 ft | 11 kts | 248° |
| 2026-04-23 07:40 | 38.92477 | 20.76706 | 21 ft | 16 kts | 248° |
| 2026-04-23 07:40 | 38.92438 | 20.76579 | 19 ft | 15 kts | 248° |
| 2026-04-23 07:40 | 38.92403 | 20.76465 | 18 ft | 12 kts | 249° |
| 2026-04-23 07:40 | 38.92366 | 20.76346 | 18 ft | 16 kts | 248° |
| 2026-04-23 07:41 | 38.92326 | 20.76216 | 19 ft | 17 kts | 248° |
| 2026-04-23 07:41 | 38.92284 | 20.76080 | 19 ft | 15 kts | 248° |
| 2026-04-23 07:41 | 38.92247 | 20.75965 | 20 ft | 13 kts | 247° |
| 2026-04-23 07:41 | 38.92214 | 20.75863 | 20 ft | 11 kts | 247° |
| 2026-04-23 07:42 | 38.92187 | 20.75780 | 21 ft | 9 kts | 247° |
| 2026-04-23 07:42 | 38.92167 | 20.75718 | 21 ft | 6 kts | 248° |
| 2026-04-23 07:42 | 38.92140 | 20.75635 | 21 ft | 12 kts | 248° |
| 2026-04-23 07:42 | 38.92112 | 20.75544 | 21 ft | 10 kts | 248° |
| 2026-04-23 07:43 | 38.92083 | 20.75451 | 21 ft | 14 kts | 248° |
| 2026-04-23 07:43 | 38.92050 | 20.75345 | 22 ft | 12 kts | 248° |
| 2026-04-23 07:43 | 38.92019 | 20.75246 | 22 ft | 14 kts | 248° |
| 2026-04-23 07:43 | 38.91979 | 20.75119 | 19 ft | 15 kts | 248° |
| 2026-04-23 07:44 | 38.91976 | 20.75020 | 19 ft | 11 kts | 318° |
| 2026-04-23 07:44 | 38.92058 | 20.74979 | 17 ft | 14 kts | 1° |
| 2026-04-23 07:44 | 38.92112 | 20.75077 | 18 ft | 14 kts | 66° |
| 2026-04-23 07:44 | 38.92196 | 20.75342 | 20 ft | 64 kts | 68° |
| 2026-04-23 07:45 | 38.92444 | 20.76134 | 20 ft | 125 kts | 68° |
| 2026-04-23 07:45 | 38.92834 | 20.77358 | 46 ft | 167 kts | 65° |
| 2026-04-23 07:45 | 38.93253 | 20.78727 | 711 ft | 163 kts | 67° |
| 2026-04-23 07:45 | 38.93651 | 20.80103 | 1323 ft | 171 kts | 69° |
| 2026-04-23 07:46 | 38.94088 | 20.81628 | 1636 ft | 193 kts | 68° |
| 2026-04-23 07:46 | 38.94575 | 20.83319 | 2023 ft | 207 kts | 69° |
| 2026-04-23 07:46 | 38.95082 | 20.85066 | 2627 ft | 212 kts | 69° |
| 2026-04-23 07:46 | 38.95652 | 20.86805 | 3375 ft | 212 kts | 57° |
| 2026-04-23 07:47 | 38.96735 | 20.88087 | 4073 ft | 216 kts | 27° |
| 2026-04-23 07:47 | 38.98205 | 20.88503 | 4731 ft | 222 kts | 358° |
| 2026-04-23 07:47 | 38.99676 | 20.87886 | 5387 ft | 227 kts | 326° |
| 2026-04-23 07:47 | 39.00714 | 20.86366 | 6066 ft | 230 kts | 294° |
| 2026-04-23 07:48 | 39.00991 | 20.84356 | 6754 ft | 232 kts | 263° |
| 2026-04-23 07:48 | 39.00429 | 20.82462 | 7429 ft | 234 kts | 233° |
| 2026-04-23 07:48 | 38.99169 | 20.81131 | 8107 ft | 238 kts | 211° |
| 2026-04-23 07:48 | 38.97733 | 20.80057 | 8824 ft | 241 kts | 213° |
| 2026-04-23 07:49 | 38.96276 | 20.78973 | 9546 ft | 244 kts | 212° |
| 2026-04-23 07:49 | 38.94808 | 20.77870 | 10212 ft | 246 kts | 213° |
| 2026-04-23 07:49 | 38.93323 | 20.76759 | 10879 ft | 248 kts | 213° |
| 2026-04-23 07:49 | 38.91860 | 20.75547 | 11465 ft | 255 kts | 225° |
| 2026-04-23 07:50 | 38.90761 | 20.73737 | 11875 ft | 260 kts | 249° |
| 2026-04-23 07:50 | 38.90290 | 20.71517 | 12559 ft | 258 kts | 270° |
| 2026-04-23 07:50 | 38.90413 | 20.69234 | 13304 ft | 257 kts | 279° |
| 2026-04-23 07:50 | 38.90639 | 20.66958 | 14021 ft | 257 kts | 279° |
| 2026-04-23 07:51 | 38.90894 | 20.64690 | 14675 ft | 257 kts | 285° |
| 2026-04-23 07:51 | 38.91546 | 20.62568 | 15322 ft | 257 kts | 300° |
| 2026-04-23 07:51 | 38.92676 | 20.60713 | 15595 ft | 276 kts | 315° |
| 2026-04-23 07:51 | 38.94219 | 20.59100 | 15726 ft | 296 kts | 319° |
| 2026-04-23 07:52 | 38.95887 | 20.57399 | 15854 ft | 315 kts | 319° |
| 2026-04-23 07:52 | 38.97645 | 20.55605 | 16115 ft | 328 kts | 319° |
| 2026-04-23 07:52 | 38.99442 | 20.53769 | 16649 ft | 332 kts | 318° |
| 2026-04-23 07:52 | 39.01263 | 20.51910 | 17270 ft | 337 kts | 318° |
| 2026-04-23 07:53 | 39.03092 | 20.50027 | 17932 ft | 337 kts | 317° |
| 2026-04-23 07:53 | 39.04922 | 20.48139 | 18522 ft | 338 kts | 317° |
| 2026-04-23 07:53 | 39.06761 | 20.46237 | 19042 ft | 340 kts | 317° |
| 2026-04-23 07:53 | 39.08609 | 20.44324 | 19565 ft | 342 kts | 317° |
| 2026-04-23 07:54 | 39.10457 | 20.42411 | 20047 ft | 342 kts | 316° |
| 2026-04-23 07:54 | 39.12317 | 20.40484 | 20536 ft | 344 kts | 316° |
| 2026-04-23 07:54 | 39.14182 | 20.38548 | 21032 ft | 345 kts | 316° |
| 2026-04-23 07:54 | 39.16057 | 20.36600 | 21526 ft | 347 kts | 316° |
| 2026-04-23 07:55 | 39.17938 | 20.34645 | 22045 ft | 348 kts | 315° |
| 2026-04-23 07:55 | 39.19826 | 20.32682 | 22528 ft | 350 kts | 315° |
| 2026-04-23 07:55 | 39.21723 | 20.30712 | 23013 ft | 351 kts | 315° |
| 2026-04-23 07:55 | 39.23631 | 20.28738 | 23480 ft | 353 kts | 315° |
| 2026-04-23 07:56 | 39.25554 | 20.26758 | 23875 ft | 354 kts | 315° |
| 2026-04-23 07:56 | 39.27485 | 20.24770 | 24243 ft | 356 kts | 315° |
| 2026-04-23 07:56 | 39.29424 | 20.22772 | 24600 ft | 358 kts | 315° |
| 2026-04-23 07:56 | 39.31372 | 20.20759 | 24962 ft | 359 kts | 315° |
| 2026-04-23 07:57 | 39.33327 | 20.18735 | 25312 ft | 361 kts | 315° |
| 2026-04-23 07:57 | 39.35295 | 20.16698 | 25690 ft | 364 kts | 315° |
| 2026-04-23 07:57 | 39.37278 | 20.14643 | 26006 ft | 366 kts | 315° |
| 2026-04-23 07:57 | 39.39272 | 20.12577 | 26327 ft | 368 kts | 315° |
| 2026-04-23 07:58 | 39.41276 | 20.10505 | 26679 ft | 370 kts | 315° |
| 2026-04-23 07:58 | 39.43282 | 20.08418 | 27016 ft | 370 kts | 313° |
| 2026-04-23 07:58 | 39.44513 | 20.06907 | 27237 ft | 367 kts | 307° |
| 2026-04-23 07:58 | 39.46104 | 20.04345 | 27557 ft | 365 kts | 302° |
| 2026-04-23 07:59 | 39.47628 | 20.01706 | 27898 ft | 367 kts | 302° |
| 2026-04-23 07:59 | 39.49158 | 19.99056 | 28221 ft | 368 kts | 302° |
| 2026-04-23 07:59 | 39.50698 | 19.96395 | 28536 ft | 370 kts | 302° |
| 2026-04-23 07:59 | 39.52246 | 19.93727 | 28856 ft | 371 kts | 302° |
| 2026-04-23 08:00 | 39.54307 | 19.90174 | 29221 ft | 374 kts | 302° |
| 2026-04-23 08:00 | 39.55867 | 19.87474 | 29537 ft | 375 kts | 302° |
| 2026-04-23 08:00 | 39.56921 | 19.85644 | 29751 ft | 375 kts | 302° |
| 2026-04-23 08:00 | 39.58488 | 19.82923 | 30044 ft | 377 kts | 302° |
| 2026-04-23 08:01 | 39.60059 | 19.80195 | 30269 ft | 379 kts | 302° |
| 2026-04-23 08:01 | 39.61641 | 19.77448 | 30474 ft | 382 kts | 302° |
| 2026-04-23 08:01 | 39.63235 | 19.74680 | 30645 ft | 384 kts | 303° |
| 2026-04-23 08:01 | 39.64840 | 19.71890 | 30908 ft | 386 kts | 303° |
| 2026-04-23 08:02 | 39.66446 | 19.69090 | 31168 ft | 387 kts | 303° |
| 2026-04-23 08:02 | 39.68054 | 19.66288 | 31446 ft | 388 kts | 303° |
| 2026-04-23 08:02 | 39.69665 | 19.63481 | 31710 ft | 388 kts | 303° |
| 2026-04-23 08:02 | 39.71277 | 19.60669 | 31988 ft | 388 kts | 303° |
| 2026-04-23 08:03 | 39.72888 | 19.57854 | 32260 ft | 389 kts | 303° |
| 2026-04-23 08:03 | 39.74501 | 19.55035 | 32532 ft | 389 kts | 303° |
| 2026-04-23 08:03 | 39.76116 | 19.52212 | 32812 ft | 389 kts | 303° |
| 2026-04-23 08:03 | 39.77731 | 19.49388 | 33081 ft | 389 kts | 303° |
| 2026-04-23 08:04 | 39.79320 | 19.46598 | 33347 ft | 390 kts | 303° |
| 2026-04-23 08:04 | 39.80932 | 19.43762 | 33589 ft | 390 kts | 304° |
| 2026-04-23 08:04 | 39.82547 | 19.40921 | 33845 ft | 391 kts | 304° |
| 2026-04-23 08:04 | 39.84161 | 19.38079 | 34109 ft | 391 kts | 304° |
| 2026-04-23 08:05 | 39.85781 | 19.35233 | 34321 ft | 391 kts | 304° |
| 2026-04-23 08:05 | 39.87402 | 19.32384 | 34518 ft | 392 kts | 304° |
| 2026-04-23 08:05 | 39.89024 | 19.29526 | 34707 ft | 393 kts | 304° |
| 2026-04-23 08:05 | 39.90648 | 19.26658 | 34894 ft | 393 kts | 304° |
| 2026-04-23 08:06 | 39.92273 | 19.23790 | 35099 ft | 394 kts | 304° |
| 2026-04-23 08:06 | 39.93901 | 19.20913 | 35273 ft | 395 kts | 304° |
| 2026-04-23 08:06 | 39.95530 | 19.18026 | 35430 ft | 396 kts | 304° |
| 2026-04-23 08:06 | 39.97167 | 19.15124 | 35560 ft | 398 kts | 304° |
| 2026-04-23 08:07 | 39.98807 | 19.12216 | 35720 ft | 399 kts | 304° |
| 2026-04-23 08:07 | 40.00451 | 19.09299 | 35895 ft | 400 kts | 305° |
| 2026-04-23 08:07 | 40.02098 | 19.06374 | 36022 ft | 401 kts | 305° |
| 2026-04-23 08:08 | 40.05382 | 19.00528 | 36056 ft | 399 kts | 305° |
| 2026-04-23 08:08 | 40.08743 | 18.94771 | 36065 ft | 399 kts | 307° |
| 2026-04-23 08:09 | 40.12210 | 18.89117 | 36068 ft | 399 kts | 307° |
| 2026-04-23 08:09 | 40.15676 | 18.83460 | 36070 ft | 398 kts | 307° |
| 2026-04-23 08:10 | 40.19107 | 18.77773 | 36049 ft | 398 kts | 307° |
| 2026-04-23 08:10 | 40.24232 | 18.69212 | 36092 ft | 398 kts | 307° |
| 2026-04-23 08:11 | 40.27658 | 18.63497 | 36074 ft | 400 kts | 307° |
| 2026-04-23 08:11 | 40.31096 | 18.57758 | 36061 ft | 400 kts | 307° |
| 2026-04-23 08:12 | 40.34529 | 18.51993 | 36068 ft | 402 kts | 307° |
| 2026-04-23 08:12 | 40.37965 | 18.46222 | 36075 ft | 402 kts | 307° |
| 2026-04-23 08:13 | 40.41408 | 18.40442 | 36068 ft | 402 kts | 307° |
| 2026-04-23 08:13 | 40.44850 | 18.34653 | 36074 ft | 402 kts | 307° |
| 2026-04-23 08:14 | 40.48263 | 18.28886 | 36082 ft | 403 kts | 307° |
| 2026-04-23 08:14 | 40.51696 | 18.23072 | 36096 ft | 403 kts | 307° |
| 2026-04-23 08:15 | 40.55140 | 18.17251 | 36107 ft | 404 kts | 308° |
| 2026-04-23 08:15 | 40.58590 | 18.11404 | 36095 ft | 405 kts | 307° |
| 2026-04-23 08:16 | 40.62037 | 18.05533 | 36098 ft | 406 kts | 307° |
| 2026-04-23 08:16 | 40.65496 | 17.99646 | 36097 ft | 407 kts | 307° |
| 2026-04-23 08:17 | 40.68959 | 17.93746 | 36101 ft | 407 kts | 307° |
| 2026-04-23 08:17 | 40.72415 | 17.87830 | 36109 ft | 407 kts | 307° |
| 2026-04-23 08:18 | 40.75870 | 17.81906 | 36113 ft | 407 kts | 307° |
| 2026-04-23 08:18 | 40.79327 | 17.75979 | 36125 ft | 408 kts | 307° |
| 2026-04-23 08:19 | 40.82783 | 17.70045 | 36138 ft | 408 kts | 308° |
| 2026-04-23 08:19 | 40.86232 | 17.64088 | 36127 ft | 409 kts | 308° |
| 2026-04-23 08:20 | 40.89705 | 17.58144 | 36126 ft | 409 kts | 309° |
| 2026-04-23 08:20 | 40.93454 | 17.52485 | 36126 ft | 409 kts | 313° |
| 2026-04-23 08:21 | 40.97338 | 17.46973 | 36134 ft | 409 kts | 313° |
| 2026-04-23 08:21 | 41.01193 | 17.41422 | 36140 ft | 410 kts | 312° |
| 2026-04-23 08:22 | 41.05004 | 17.35811 | 36128 ft | 410 kts | 312° |
| 2026-04-23 08:22 | 41.08791 | 17.30164 | 36130 ft | 410 kts | 312° |
| 2026-04-23 08:23 | 41.12588 | 17.24506 | 36129 ft | 411 kts | 312° |
| 2026-04-23 08:23 | 41.16402 | 17.18839 | 36134 ft | 412 kts | 312° |
| 2026-04-23 08:24 | 41.20220 | 17.13156 | 36132 ft | 413 kts | 312° |
| 2026-04-23 08:24 | 41.24031 | 17.07442 | 36138 ft | 413 kts | 312° |
| 2026-04-23 08:25 | 41.27829 | 17.01707 | 36137 ft | 413 kts | 312° |
| 2026-04-23 08:25 | 41.31621 | 16.95972 | 36141 ft | 413 kts | 312° |
| 2026-04-23 08:26 | 41.35420 | 16.90239 | 36144 ft | 413 kts | 312° |
| 2026-04-23 08:26 | 41.39223 | 16.84486 | 36144 ft | 414 kts | 313° |
| 2026-04-23 08:27 | 41.43044 | 16.78729 | 36144 ft | 415 kts | 313° |
| 2026-04-23 08:27 | 41.46881 | 16.72951 | 36148 ft | 417 kts | 313° |
| 2026-04-23 08:28 | 41.50715 | 16.67158 | 36138 ft | 417 kts | 313° |
| 2026-04-23 08:28 | 41.54698 | 16.61554 | 36150 ft | 416 kts | 318° |
| 2026-04-23 08:29 | 41.58924 | 16.56264 | 36154 ft | 417 kts | 318° |
| 2026-04-23 08:29 | 41.63147 | 16.50959 | 36156 ft | 417 kts | 318° |
| 2026-04-23 08:30 | 41.67364 | 16.45641 | 36165 ft | 417 kts | 318° |
| 2026-04-23 08:30 | 41.71582 | 16.40312 | 36170 ft | 417 kts | 317° |
| 2026-04-23 08:31 | 41.75799 | 16.34979 | 36172 ft | 417 kts | 317° |
| 2026-04-23 08:31 | 41.80017 | 16.29642 | 36164 ft | 417 kts | 318° |
| 2026-04-23 08:32 | 41.84234 | 16.24300 | 36170 ft | 417 kts | 317° |
| 2026-04-23 08:32 | 41.88442 | 16.18941 | 36178 ft | 417 kts | 318° |
| 2026-04-23 08:33 | 41.92657 | 16.13572 | 36177 ft | 418 kts | 318° |
| 2026-04-23 08:33 | 41.96883 | 16.08196 | 36178 ft | 418 kts | 318° |
| 2026-04-23 08:34 | 42.01108 | 16.02802 | 36182 ft | 419 kts | 318° |
| 2026-04-23 08:34 | 42.05333 | 15.97387 | 36176 ft | 420 kts | 318° |
| 2026-04-23 08:35 | 42.09550 | 15.91955 | 36209 ft | 419 kts | 318° |
| 2026-04-23 08:35 | 42.13771 | 15.86533 | 36210 ft | 420 kts | 319° |
| 2026-04-23 08:36 | 42.17996 | 15.81096 | 36207 ft | 420 kts | 319° |
| 2026-04-23 08:36 | 42.22192 | 15.75674 | 36202 ft | 421 kts | 318° |
| 2026-04-23 08:37 | 42.26445 | 15.70175 | 36203 ft | 421 kts | 318° |
| 2026-04-23 08:37 | 42.30665 | 15.64703 | 36204 ft | 420 kts | 318° |
| 2026-04-23 08:38 | 42.34878 | 15.59227 | 36195 ft | 420 kts | 318° |
| 2026-04-23 08:38 | 42.39060 | 15.53783 | 36193 ft | 421 kts | 319° |
| 2026-04-23 08:39 | 42.43308 | 15.48250 | 36195 ft | 422 kts | 319° |
| 2026-04-23 08:39 | 42.47535 | 15.42724 | 36203 ft | 423 kts | 319° |
| 2026-04-23 08:40 | 42.51766 | 15.37181 | 36201 ft | 423 kts | 319° |
| 2026-04-23 08:40 | 42.56001 | 15.31624 | 36213 ft | 424 kts | 319° |
| 2026-04-23 08:41 | 42.60240 | 15.26055 | 36202 ft | 424 kts | 319° |
| 2026-04-23 08:41 | 42.64486 | 15.20463 | 36204 ft | 426 kts | 319° |
| 2026-04-23 08:42 | 42.68026 | 15.15800 | 36206 ft | 427 kts | 319° |
| 2026-04-23 08:42 | 42.72289 | 15.10168 | 36212 ft | 428 kts | 319° |
| 2026-04-23 08:43 | 42.76560 | 15.04512 | 36224 ft | 429 kts | 319° |
| 2026-04-23 08:43 | 42.80829 | 14.98845 | 36233 ft | 429 kts | 319° |
| 2026-04-23 08:44 | 42.85097 | 14.93175 | 36237 ft | 428 kts | 319° |
| 2026-04-23 08:44 | 42.89365 | 14.87493 | 36215 ft | 429 kts | 319° |
| 2026-04-23 08:45 | 42.93638 | 14.81791 | 36219 ft | 430 kts | 319° |
| 2026-04-23 08:45 | 42.97914 | 14.76070 | 36238 ft | 431 kts | 319° |
| 2026-04-23 08:46 | 43.02190 | 14.70338 | 36230 ft | 431 kts | 319° |
| 2026-04-23 08:46 | 43.06462 | 14.64591 | 36232 ft | 431 kts | 319° |
| 2026-04-23 08:47 | 43.10729 | 14.58841 | 36224 ft | 431 kts | 319° |
| 2026-04-23 08:47 | 43.15006 | 14.53070 | 36227 ft | 432 kts | 319° |
| 2026-04-23 08:48 | 43.19288 | 14.47292 | 36249 ft | 433 kts | 319° |
| 2026-04-23 08:48 | 43.23579 | 14.41491 | 36244 ft | 434 kts | 319° |
| 2026-04-23 08:49 | 43.27868 | 14.35662 | 36248 ft | 434 kts | 319° |
| 2026-04-23 08:49 | 43.32153 | 14.29821 | 36251 ft | 434 kts | 319° |
| 2026-04-23 08:50 | 43.36447 | 14.23968 | 36238 ft | 435 kts | 319° |
| 2026-04-23 08:50 | 43.40750 | 14.18095 | 36236 ft | 436 kts | 319° |
| 2026-04-23 08:51 | 43.45047 | 14.12202 | 36239 ft | 436 kts | 319° |
| 2026-04-23 08:51 | 43.49349 | 14.06302 | 36253 ft | 436 kts | 319° |
| 2026-04-23 08:52 | 43.53645 | 14.00394 | 36258 ft | 437 kts | 319° |
| 2026-04-23 08:52 | 43.57948 | 13.94478 | 36250 ft | 437 kts | 319° |
| 2026-04-23 08:53 | 43.62249 | 13.88552 | 36251 ft | 437 kts | 319° |
| 2026-04-23 08:53 | 43.66545 | 13.82597 | 36234 ft | 438 kts | 319° |
| 2026-04-23 08:54 | 43.70838 | 13.76638 | 36241 ft | 437 kts | 319° |
| 2026-04-23 08:54 | 43.75128 | 13.70673 | 36241 ft | 438 kts | 319° |
| 2026-04-23 08:55 | 43.79427 | 13.64693 | 36247 ft | 439 kts | 319° |
| 2026-04-23 08:55 | 43.83728 | 13.58701 | 36245 ft | 439 kts | 319° |
| 2026-04-23 08:56 | 43.88028 | 13.52690 | 36248 ft | 439 kts | 319° |
| 2026-04-23 08:56 | 43.92332 | 13.46654 | 36241 ft | 440 kts | 319° |
| 2026-04-23 08:57 | 43.96604 | 13.40636 | 36252 ft | 441 kts | 319° |
| 2026-04-23 08:57 | 44.00900 | 13.34580 | 36260 ft | 440 kts | 319° |
| 2026-04-23 08:58 | 44.05196 | 13.28511 | 36274 ft | 440 kts | 319° |
| 2026-04-23 08:58 | 44.09491 | 13.22439 | 36276 ft | 441 kts | 319° |
| 2026-04-23 08:59 | 44.13792 | 13.16357 | 36276 ft | 440 kts | 318° |
| 2026-04-23 08:59 | 44.18086 | 13.10257 | 36260 ft | 441 kts | 318° |
| 2026-04-23 09:00 | 44.22370 | 13.04162 | 36271 ft | 440 kts | 318° |
| 2026-04-23 09:00 | 44.26649 | 12.98052 | 36262 ft | 441 kts | 318° |
| 2026-04-23 09:01 | 44.30938 | 12.91909 | 36273 ft | 443 kts | 318° |
| 2026-04-23 09:01 | 44.35271 | 12.85762 | 36283 ft | 444 kts | 320° |
| 2026-04-23 09:02 | 44.39817 | 12.79968 | 36271 ft | 442 kts | 323° |
| 2026-04-23 09:02 | 44.44457 | 12.74337 | 36275 ft | 442 kts | 323° |
| 2026-04-23 09:03 | 44.49062 | 12.68630 | 36272 ft | 442 kts | 322° |
| 2026-04-23 09:03 | 44.53632 | 12.62840 | 36270 ft | 443 kts | 322° |
| 2026-04-23 09:04 | 44.58198 | 12.57014 | 36284 ft | 445 kts | 322° |
| 2026-04-23 09:04 | 44.62780 | 12.51176 | 36279 ft | 445 kts | 322° |
| 2026-04-23 09:05 | 44.67365 | 12.45334 | 36294 ft | 445 kts | 322° |
| 2026-04-23 09:05 | 44.71945 | 12.39484 | 36279 ft | 445 kts | 321° |
| 2026-04-23 09:06 | 44.76528 | 12.33620 | 36283 ft | 446 kts | 321° |
| 2026-04-23 09:06 | 44.81115 | 12.27735 | 36282 ft | 447 kts | 321° |
| 2026-04-23 09:07 | 44.85708 | 12.21839 | 36272 ft | 447 kts | 321° |
| 2026-04-23 09:07 | 44.90296 | 12.15918 | 36277 ft | 447 kts | 321° |
| 2026-04-23 09:08 | 44.94886 | 12.09983 | 36279 ft | 448 kts | 321° |
| 2026-04-23 09:08 | 44.99482 | 12.04040 | 36279 ft | 448 kts | 321° |
| 2026-04-23 09:09 | 45.04078 | 11.98083 | 36284 ft | 449 kts | 321° |
| 2026-04-23 09:09 | 45.08675 | 11.92107 | 36275 ft | 449 kts | 321° |
| 2026-04-23 09:10 | 45.15559 | 11.83120 | 36284 ft | 449 kts | 321° |
| 2026-04-23 09:11 | 45.20150 | 11.77118 | 36273 ft | 449 kts | 321° |
| 2026-04-23 09:11 | 45.24741 | 11.71098 | 36279 ft | 450 kts | 321° |
| 2026-04-23 09:12 | 45.29338 | 11.65063 | 36256 ft | 450 kts | 321° |
| 2026-04-23 09:12 | 45.33930 | 11.59011 | 36264 ft | 450 kts | 321° |
| 2026-04-23 09:13 | 45.38525 | 11.52949 | 36272 ft | 450 kts | 321° |
| 2026-04-23 09:13 | 45.43121 | 11.46882 | 36263 ft | 451 kts | 321° |
| 2026-04-23 09:14 | 45.47713 | 11.40786 | 36265 ft | 451 kts | 321° |
| 2026-04-23 09:14 | 45.52305 | 11.34672 | 36270 ft | 452 kts | 321° |
| 2026-04-23 09:15 | 45.56902 | 11.28554 | 36268 ft | 452 kts | 321° |
| 2026-04-23 09:15 | 45.61498 | 11.22431 | 36275 ft | 452 kts | 321° |
| 2026-04-23 09:16 | 45.66092 | 11.16280 | 36261 ft | 453 kts | 321° |
| 2026-04-23 09:16 | 45.70683 | 11.10109 | 36258 ft | 453 kts | 321° |
| 2026-04-23 09:17 | 45.75272 | 11.03938 | 36247 ft | 453 kts | 320° |
| 2026-04-23 09:17 | 45.79869 | 10.97741 | 36257 ft | 454 kts | 320° |
| 2026-04-23 09:18 | 45.84462 | 10.91535 | 36266 ft | 454 kts | 320° |
| 2026-04-23 09:18 | 45.89052 | 10.85321 | 36255 ft | 454 kts | 320° |
| 2026-04-23 09:19 | 45.93640 | 10.79085 | 36260 ft | 454 kts | 320° |
| 2026-04-23 09:19 | 45.98227 | 10.72838 | 36250 ft | 454 kts | 320° |
| 2026-04-23 09:20 | 46.02815 | 10.66585 | 36250 ft | 455 kts | 320° |
| 2026-04-23 09:20 | 46.07404 | 10.60312 | 36255 ft | 455 kts | 320° |
| 2026-04-23 09:21 | 46.11988 | 10.54033 | 36255 ft | 455 kts | 320° |
| 2026-04-23 09:21 | 46.16565 | 10.47738 | 36257 ft | 454 kts | 320° |
| 2026-04-23 09:22 | 46.21140 | 10.41423 | 36261 ft | 455 kts | 320° |
| 2026-04-23 09:22 | 46.25716 | 10.35098 | 36267 ft | 456 kts | 320° |
| 2026-04-23 09:23 | 46.30300 | 10.28762 | 36287 ft | 456 kts | 320° |
| 2026-04-23 09:23 | 46.34109 | 10.23490 | 36293 ft | 456 kts | 320° |
| 2026-04-23 09:24 | 46.38684 | 10.17131 | 36303 ft | 456 kts | 320° |
| 2026-04-23 09:24 | 46.43249 | 10.10760 | 36318 ft | 456 kts | 319° |
| 2026-04-23 09:25 | 46.47806 | 10.04370 | 36316 ft | 456 kts | 319° |
| 2026-04-23 09:25 | 46.52470 | 9.98163 | 36319 ft | 455 kts | 322° |
| 2026-04-23 09:26 | 46.57242 | 9.92142 | 36308 ft | 454 kts | 323° |
| 2026-04-23 09:26 | 46.62007 | 9.86100 | 36274 ft | 454 kts | 322° |
| 2026-04-23 09:27 | 46.66733 | 9.79994 | 36288 ft | 455 kts | 322° |
| 2026-04-23 09:27 | 46.71450 | 9.73835 | 36287 ft | 456 kts | 321° |
| 2026-04-23 09:28 | 46.76167 | 9.67667 | 36294 ft | 456 kts | 321° |
| 2026-04-23 09:28 | 46.80867 | 9.61547 | 36294 ft | 456 kts | 322° |
| 2026-04-23 09:29 | 46.85601 | 9.55362 | 36288 ft | 457 kts | 321° |
| 2026-04-23 09:29 | 46.90328 | 9.49161 | 36293 ft | 457 kts | 321° |
| 2026-04-23 09:30 | 46.95057 | 9.42950 | 36289 ft | 457 kts | 321° |
| 2026-04-23 09:30 | 46.99791 | 9.36722 | 36295 ft | 457 kts | 321° |
| 2026-04-23 09:31 | 47.05004 | 9.31615 | 36284 ft | 447 kts | 340° |
| 2026-04-23 09:31 | 47.10896 | 9.29222 | 36290 ft | 435 kts | 359° |
| 2026-04-23 09:32 | 47.16914 | 9.28620 | 36284 ft | 434 kts | 1° |
| 2026-04-23 09:32 | 47.22942 | 9.28007 | 36284 ft | 434 kts | 1° |
| 2026-04-23 09:33 | 47.28978 | 9.27381 | 36300 ft | 435 kts | 1° |
| 2026-04-23 09:33 | 47.35022 | 9.26760 | 36309 ft | 435 kts | 1° |
| 2026-04-23 09:34 | 47.41064 | 9.26143 | 36314 ft | 435 kts | 1° |
| 2026-04-23 09:34 | 47.47099 | 9.25530 | 36318 ft | 435 kts | 1° |
| 2026-04-23 09:35 | 47.53138 | 9.24911 | 36336 ft | 435 kts | 1° |
| 2026-04-23 09:35 | 47.59176 | 9.24290 | 36340 ft | 435 kts | 1° |
| 2026-04-23 09:36 | 47.65215 | 9.23671 | 36322 ft | 435 kts | 1° |
| 2026-04-23 09:36 | 47.71253 | 9.23037 | 36327 ft | 435 kts | 1° |
| 2026-04-23 09:37 | 47.77287 | 9.22396 | 36328 ft | 435 kts | 1° |
| 2026-04-23 09:37 | 47.83318 | 9.21771 | 36328 ft | 434 kts | 1° |
| 2026-04-23 09:38 | 47.89346 | 9.21155 | 36324 ft | 434 kts | 1° |
| 2026-04-23 09:38 | 47.95370 | 9.20532 | 36331 ft | 434 kts | 1° |
| 2026-04-23 09:39 | 48.01389 | 9.19896 | 36334 ft | 434 kts | 1° |
| 2026-04-23 09:39 | 48.07404 | 9.19261 | 36319 ft | 434 kts | 1° |
| 2026-04-23 09:40 | 48.13426 | 9.18629 | 36326 ft | 434 kts | 1° |
| 2026-04-23 09:40 | 48.19402 | 9.18729 | 36334 ft | 426 kts | 12° |
| 2026-04-23 09:41 | 48.25298 | 9.19732 | 36345 ft | 426 kts | 12° |
| 2026-04-23 09:41 | 48.31194 | 9.20731 | 36336 ft | 426 kts | 12° |
| 2026-04-23 09:42 | 48.37087 | 9.21723 | 36349 ft | 426 kts | 12° |
| 2026-04-23 09:42 | 48.42970 | 9.22715 | 36352 ft | 425 kts | 11° |
| 2026-04-23 09:43 | 48.48850 | 9.23710 | 36351 ft | 425 kts | 12° |
| 2026-04-23 09:43 | 48.54728 | 9.24688 | 36373 ft | 426 kts | 8° |
| 2026-04-23 09:43 | 48.57712 | 9.24544 | 36378 ft | 434 kts | 356° |
| 2026-04-23 09:44 | 48.60662 | 9.23446 | 36378 ft | 441 kts | 344° |
| 2026-04-23 09:44 | 48.63443 | 9.21414 | 36371 ft | 448 kts | 332° |
| 2026-04-23 09:44 | 48.65917 | 9.18504 | 36366 ft | 455 kts | 319° |
| 2026-04-23 09:45 | 48.70096 | 9.11243 | 36356 ft | 459 kts | 313° |
| 2026-04-23 09:45 | 48.74219 | 9.03849 | 36342 ft | 460 kts | 313° |
| 2026-04-23 09:46 | 48.78340 | 8.96410 | 36347 ft | 461 kts | 313° |
| 2026-04-23 09:46 | 48.82471 | 8.88971 | 36348 ft | 461 kts | 313° |
| 2026-04-23 09:47 | 48.86607 | 8.81521 | 36353 ft | 462 kts | 313° |
| 2026-04-23 09:47 | 48.90735 | 8.74039 | 36347 ft | 462 kts | 313° |
| 2026-04-23 09:48 | 48.94863 | 8.66535 | 36355 ft | 463 kts | 313° |
| 2026-04-23 09:48 | 48.98963 | 8.59058 | 36344 ft | 463 kts | 313° |
| 2026-04-23 09:49 | 49.03155 | 8.51613 | 36353 ft | 462 kts | 315° |
| 2026-04-23 09:49 | 49.07484 | 8.44279 | 36364 ft | 462 kts | 315° |
| 2026-04-23 09:50 | 49.11786 | 8.36983 | 36370 ft | 463 kts | 315° |
| 2026-04-23 09:50 | 49.16057 | 8.29622 | 36379 ft | 463 kts | 314° |
| 2026-04-23 09:51 | 49.20294 | 8.22215 | 36380 ft | 463 kts | 314° |
| 2026-04-23 09:51 | 49.24506 | 8.14855 | 36372 ft | 463 kts | 314° |
| 2026-04-23 09:52 | 49.28779 | 8.07402 | 36380 ft | 463 kts | 314° |
| 2026-04-23 09:52 | 49.33031 | 7.99982 | 36383 ft | 463 kts | 314° |
| 2026-04-23 09:53 | 49.37281 | 7.92536 | 36385 ft | 464 kts | 314° |
| 2026-04-23 09:53 | 49.41516 | 7.85056 | 36382 ft | 464 kts | 314° |
| 2026-04-23 09:54 | 49.45749 | 7.77568 | 36381 ft | 464 kts | 314° |
| 2026-04-23 09:54 | 49.49986 | 7.70080 | 36376 ft | 464 kts | 314° |
| 2026-04-23 09:55 | 49.54220 | 7.62573 | 36382 ft | 464 kts | 313° |
| 2026-04-23 09:55 | 49.58446 | 7.55037 | 36378 ft | 465 kts | 313° |
| 2026-04-23 09:56 | 49.62661 | 7.47486 | 36382 ft | 465 kts | 313° |
| 2026-04-23 09:56 | 49.66855 | 7.39974 | 36382 ft | 465 kts | 313° |
| 2026-04-23 09:57 | 49.70647 | 7.33189 | 36381 ft | 465 kts | 313° |
| 2026-04-23 09:57 | 49.74861 | 7.25599 | 36368 ft | 465 kts | 313° |
| 2026-04-23 09:58 | 49.79065 | 7.17982 | 36368 ft | 466 kts | 313° |
| 2026-04-23 09:58 | 49.83285 | 7.10336 | 36371 ft | 467 kts | 313° |
| 2026-04-23 09:59 | 49.87504 | 7.02687 | 36371 ft | 467 kts | 313° |
| 2026-04-23 09:59 | 49.91719 | 6.95012 | 36377 ft | 468 kts | 312° |
| 2026-04-23 10:00 | 49.95925 | 6.87317 | 36382 ft | 467 kts | 313° |
| 2026-04-23 10:00 | 50.00128 | 6.79602 | 36365 ft | 468 kts | 312° |
| 2026-04-23 10:01 | 50.04315 | 6.71889 | 36373 ft | 468 kts | 312° |
| 2026-04-23 10:01 | 50.08530 | 6.64129 | 36377 ft | 468 kts | 312° |
| 2026-04-23 10:02 | 50.12732 | 6.56371 | 36378 ft | 468 kts | 312° |
| 2026-04-23 10:02 | 50.16921 | 6.48604 | 36367 ft | 468 kts | 312° |
| 2026-04-23 10:03 | 50.20692 | 6.40315 | 36380 ft | 470 kts | 303° |
| 2026-04-23 10:03 | 50.24159 | 6.31650 | 36369 ft | 471 kts | 303° |
| 2026-04-23 10:04 | 50.27637 | 6.22961 | 36370 ft | 471 kts | 303° |
| 2026-04-23 10:04 | 50.31100 | 6.14250 | 36374 ft | 472 kts | 302° |
| 2026-04-23 10:05 | 50.34550 | 6.05522 | 36384 ft | 471 kts | 302° |
| 2026-04-23 10:05 | 50.38002 | 5.96780 | 36390 ft | 472 kts | 302° |
| 2026-04-23 10:06 | 50.41454 | 5.88018 | 36389 ft | 473 kts | 302° |
| 2026-04-23 10:06 | 50.44895 | 5.79243 | 36387 ft | 473 kts | 302° |
| 2026-04-23 10:07 | 50.47764 | 5.71915 | 36393 ft | 473 kts | 302° |
| 2026-04-23 10:07 | 50.51202 | 5.63097 | 36398 ft | 474 kts | 302° |
| 2026-04-23 10:08 | 50.54878 | 5.54494 | 36401 ft | 474 kts | 307° |
| 2026-04-23 10:08 | 50.58831 | 5.46212 | 36408 ft | 474 kts | 308° |
| 2026-04-23 10:09 | 50.64758 | 5.33743 | 36421 ft | 474 kts | 307° |
| 2026-04-23 10:09 | 50.68616 | 5.25296 | 36422 ft | 474 kts | 306° |
| 2026-04-23 10:10 | 50.72446 | 5.16834 | 36419 ft | 474 kts | 306° |
| 2026-04-23 10:10 | 50.76292 | 5.08367 | 36434 ft | 474 kts | 306° |
| 2026-04-23 10:11 | 50.80135 | 4.99901 | 36428 ft | 474 kts | 306° |
| 2026-04-23 10:11 | 50.83982 | 4.91413 | 36428 ft | 474 kts | 306° |
| 2026-04-23 10:12 | 50.87819 | 4.82923 | 36432 ft | 474 kts | 306° |
| 2026-04-23 10:12 | 50.91646 | 4.74409 | 36434 ft | 475 kts | 305° |
| 2026-04-23 10:13 | 50.95466 | 4.65872 | 36465 ft | 474 kts | 305° |
| 2026-04-23 10:13 | 50.99274 | 4.57345 | 36469 ft | 474 kts | 305° |
| 2026-04-23 10:14 | 51.03079 | 4.48812 | 36464 ft | 473 kts | 305° |
| 2026-04-23 10:14 | 51.06864 | 4.40276 | 36460 ft | 472 kts | 305° |
| 2026-04-23 10:15 | 51.10645 | 4.31732 | 36457 ft | 472 kts | 305° |
| 2026-04-23 10:15 | 51.14399 | 4.23150 | 36454 ft | 472 kts | 301° |
| 2026-04-23 10:16 | 51.17098 | 4.13688 | 36448 ft | 468 kts | 283° |
| 2026-04-23 10:16 | 51.18527 | 4.03587 | 36438 ft | 467 kts | 280° |
| 2026-04-23 10:17 | 51.19894 | 3.93532 | 36434 ft | 467 kts | 280° |
| 2026-04-23 10:17 | 51.21267 | 3.83394 | 36430 ft | 468 kts | 280° |
| 2026-04-23 10:18 | 51.22626 | 3.73249 | 36445 ft | 468 kts | 279° |
| 2026-04-23 10:18 | 51.23968 | 3.63100 | 36445 ft | 467 kts | 279° |
| 2026-04-23 10:19 | 51.25317 | 3.52948 | 36446 ft | 467 kts | 279° |
| 2026-04-23 10:19 | 51.26667 | 3.42785 | 36141 ft | 471 kts | 279° |
| 2026-04-23 10:20 | 51.27350 | 3.37606 | 35083 ft | 482 kts | 279° |
| 2026-04-23 10:20 | 51.28035 | 3.32363 | 34487 ft | 482 kts | 278° |
| 2026-04-23 10:20 | 51.28712 | 3.27138 | 33916 ft | 478 kts | 278° |
| 2026-04-23 10:20 | 51.29376 | 3.21965 | 33396 ft | 473 kts | 278° |
| 2026-04-23 10:21 | 51.30029 | 3.16835 | 32886 ft | 469 kts | 278° |
| 2026-04-23 10:21 | 51.30671 | 3.11750 | 32378 ft | 465 kts | 278° |
| 2026-04-23 10:21 | 51.31309 | 3.06697 | 31866 ft | 462 kts | 278° |
| 2026-04-23 10:21 | 51.31939 | 3.01689 | 31372 ft | 458 kts | 278° |
| 2026-04-23 10:22 | 51.32562 | 2.96713 | 30887 ft | 454 kts | 278° |
| 2026-04-23 10:22 | 51.33178 | 2.91777 | 30356 ft | 451 kts | 277° |
| 2026-04-23 10:22 | 51.33790 | 2.86881 | 29873 ft | 446 kts | 278° |
| 2026-04-23 10:22 | 51.34394 | 2.82049 | 29414 ft | 441 kts | 277° |
| 2026-04-23 10:23 | 51.34987 | 2.77277 | 28976 ft | 435 kts | 277° |
| 2026-04-23 10:23 | 51.35570 | 2.72570 | 28538 ft | 429 kts | 277° |
| 2026-04-23 10:23 | 51.36146 | 2.67915 | 28095 ft | 424 kts | 277° |
| 2026-04-23 10:23 | 51.36711 | 2.63320 | 27666 ft | 419 kts | 277° |
| 2026-04-23 10:24 | 51.37268 | 2.58775 | 27234 ft | 414 kts | 277° |
| 2026-04-23 10:24 | 51.37817 | 2.54279 | 26790 ft | 410 kts | 278° |
| 2026-04-23 10:24 | 51.38359 | 2.49824 | 26349 ft | 406 kts | 278° |
| 2026-04-23 10:24 | 51.38898 | 2.45412 | 25897 ft | 402 kts | 278° |
| 2026-04-23 10:25 | 51.39430 | 2.41034 | 25447 ft | 399 kts | 278° |
| 2026-04-23 10:25 | 51.39955 | 2.36689 | 24985 ft | 396 kts | 279° |
| 2026-04-23 10:25 | 51.40473 | 2.32365 | 24517 ft | 394 kts | 279° |
| 2026-04-23 10:25 | 51.40988 | 2.28068 | 24052 ft | 392 kts | 279° |
| 2026-04-23 10:26 | 51.41502 | 2.23795 | 23534 ft | 389 kts | 280° |
| 2026-04-23 10:26 | 51.42011 | 2.19622 | 23102 ft | 385 kts | 280° |
| 2026-04-23 10:26 | 51.42524 | 2.15433 | 22649 ft | 381 kts | 280° |
| 2026-04-23 10:26 | 51.43030 | 2.11285 | 22210 ft | 378 kts | 281° |
| 2026-04-23 10:27 | 51.43529 | 2.07174 | 21780 ft | 374 kts | 281° |
| 2026-04-23 10:27 | 51.44023 | 2.03091 | 21352 ft | 372 kts | 281° |
| 2026-04-23 10:27 | 51.44511 | 1.99034 | 20929 ft | 370 kts | 281° |
| 2026-04-23 10:27 | 51.44991 | 1.94995 | 20502 ft | 368 kts | 281° |
| 2026-04-23 10:28 | 51.45463 | 1.90981 | 20084 ft | 365 kts | 282° |
| 2026-04-23 10:28 | 51.45930 | 1.86989 | 19670 ft | 363 kts | 283° |
| 2026-04-23 10:28 | 51.46393 | 1.83018 | 19255 ft | 361 kts | 283° |
| 2026-04-23 10:28 | 51.46850 | 1.79066 | 18847 ft | 360 kts | 283° |
| 2026-04-23 10:29 | 51.47301 | 1.75132 | 18400 ft | 358 kts | 283° |
| 2026-04-23 10:29 | 51.47749 | 1.71226 | 17991 ft | 355 kts | 283° |
| 2026-04-23 10:29 | 51.48195 | 1.67352 | 17594 ft | 352 kts | 283° |
| 2026-04-23 10:29 | 51.48542 | 1.63479 | 17201 ft | 351 kts | 274° |
| 2026-04-23 10:30 | 51.48378 | 1.59576 | 16811 ft | 352 kts | 261° |
| 2026-04-23 10:30 | 51.47680 | 1.55822 | 16412 ft | 351 kts | 250° |
| 2026-04-23 10:30 | 51.46828 | 1.52158 | 16029 ft | 350 kts | 251° |
| 2026-04-23 10:30 | 51.45980 | 1.48506 | 15643 ft | 349 kts | 251° |
| 2026-04-23 10:31 | 51.45138 | 1.44866 | 15258 ft | 348 kts | 251° |
| 2026-04-23 10:31 | 51.44287 | 1.41241 | 14864 ft | 347 kts | 247° |
| 2026-04-23 10:31 | 51.43088 | 1.37894 | 14483 ft | 347 kts | 232° |
| 2026-04-23 10:31 | 51.41439 | 1.35132 | 14270 ft | 338 kts | 218° |
| 2026-04-23 10:32 | 51.39581 | 1.32898 | 14109 ft | 331 kts | 215° |
| 2026-04-23 10:32 | 51.37736 | 1.30710 | 13928 ft | 329 kts | 215° |
| 2026-04-23 10:32 | 51.35901 | 1.28535 | 13753 ft | 327 kts | 215° |
| 2026-04-23 10:32 | 51.34074 | 1.26372 | 13576 ft | 326 kts | 215° |
| 2026-04-23 10:33 | 51.32254 | 1.24221 | 13403 ft | 325 kts | 215° |
| 2026-04-23 10:33 | 51.30436 | 1.22080 | 13227 ft | 325 kts | 214° |
| 2026-04-23 10:33 | 51.28618 | 1.19944 | 13055 ft | 324 kts | 215° |
| 2026-04-23 10:33 | 51.26810 | 1.17818 | 12879 ft | 323 kts | 214° |
| 2026-04-23 10:34 | 51.25003 | 1.15692 | 12714 ft | 322 kts | 214° |
| 2026-04-23 10:34 | 51.23207 | 1.13579 | 12529 ft | 320 kts | 215° |
| 2026-04-23 10:34 | 51.21418 | 1.11472 | 12365 ft | 319 kts | 214° |
| 2026-04-23 10:34 | 51.19634 | 1.09374 | 12199 ft | 318 kts | 214° |
| 2026-04-23 10:35 | 51.17855 | 1.07286 | 12040 ft | 318 kts | 214° |
| 2026-04-23 10:35 | 51.16076 | 1.05206 | 11863 ft | 317 kts | 214° |
| 2026-04-23 10:35 | 51.14306 | 1.03134 | 11698 ft | 314 kts | 215° |
| 2026-04-23 10:35 | 51.12542 | 1.01075 | 11533 ft | 314 kts | 214° |
| 2026-04-23 10:36 | 51.10781 | 0.99026 | 11369 ft | 314 kts | 214° |
| 2026-04-23 10:36 | 51.09017 | 0.96975 | 11202 ft | 312 kts | 214° |
| 2026-04-23 10:36 | 51.07274 | 0.94923 | 11031 ft | 312 kts | 218° |
| 2026-04-23 10:36 | 51.05759 | 0.92476 | 10868 ft | 310 kts | 231° |
| 2026-04-23 10:37 | 51.04642 | 0.89553 | 10716 ft | 310 kts | 244° |
| 2026-04-23 10:37 | 51.03726 | 0.86440 | 10554 ft | 312 kts | 244° |
| 2026-04-23 10:37 | 51.02812 | 0.83351 | 10382 ft | 307 kts | 244° |
| 2026-04-23 10:37 | 51.01902 | 0.80291 | 10224 ft | 304 kts | 243° |
| 2026-04-23 10:38 | 51.00996 | 0.77262 | 10051 ft | 304 kts | 243° |
| 2026-04-23 10:38 | 51.00085 | 0.74235 | 9901 ft | 304 kts | 243° |
| 2026-04-23 10:38 | 50.99173 | 0.71208 | 9738 ft | 306 kts | 243° |
| 2026-04-23 10:38 | 50.98263 | 0.68179 | 9578 ft | 303 kts | 243° |
| 2026-04-23 10:39 | 50.97360 | 0.65164 | 9420 ft | 301 kts | 243° |
| 2026-04-23 10:39 | 50.96462 | 0.62169 | 9262 ft | 301 kts | 243° |
| 2026-04-23 10:39 | 50.95562 | 0.59177 | 9103 ft | 300 kts | 242° |
| 2026-04-23 10:39 | 50.94656 | 0.56182 | 8937 ft | 300 kts | 242° |
| 2026-04-23 10:40 | 50.93753 | 0.53206 | 8775 ft | 299 kts | 242° |
| 2026-04-23 10:40 | 50.92853 | 0.50240 | 8622 ft | 298 kts | 243° |
| 2026-04-23 10:40 | 50.92033 | 0.47241 | 8459 ft | 298 kts | 251° |
| 2026-04-23 10:40 | 50.91684 | 0.44004 | 8293 ft | 299 kts | 268° |
| 2026-04-23 10:41 | 50.91893 | 0.40726 | 8140 ft | 301 kts | 284° |
| 2026-04-23 10:41 | 50.92478 | 0.37534 | 7969 ft | 301 kts | 287° |
| 2026-04-23 10:41 | 50.93072 | 0.34328 | 7813 ft | 299 kts | 287° |
| 2026-04-23 10:41 | 50.93639 | 0.31242 | 7688 ft | 287 kts | 287° |
| 2026-04-23 10:42 | 50.94183 | 0.28266 | 7575 ft | 275 kts | 286° |
| 2026-04-23 10:42 | 50.94717 | 0.25403 | 7379 ft | 267 kts | 288° |
| 2026-04-23 10:42 | 50.95321 | 0.22648 | 7236 ft | 264 kts | 291° |
| 2026-04-23 10:42 | 50.95968 | 0.19923 | 7084 ft | 263 kts | 291° |
| 2026-04-23 10:43 | 50.96624 | 0.17219 | 6899 ft | 264 kts | 291° |
| 2026-04-23 10:43 | 50.97283 | 0.14499 | 6677 ft | 264 kts | 291° |
| 2026-04-23 10:43 | 50.97938 | 0.11756 | 6157 ft | 264 kts | 291° |
| 2026-04-23 10:43 | 50.98576 | 0.09043 | 5806 ft | 260 kts | 290° |
| 2026-04-23 10:44 | 50.99197 | 0.06380 | 5716 ft | 258 kts | 290° |
| 2026-04-23 10:44 | 50.99821 | 0.03708 | 5565 ft | 258 kts | 290° |
| 2026-04-23 10:44 | 51.00446 | 0.01037 | 5396 ft | 258 kts | 290° |
| 2026-04-23 10:44 | 51.01068 | -0.01626 | 5217 ft | 256 kts | 290° |
| 2026-04-23 10:45 | 51.01684 | -0.04273 | 5050 ft | 257 kts | 290° |
| 2026-04-23 10:45 | 51.02300 | -0.06938 | 4872 ft | 257 kts | 290° |
| 2026-04-23 10:45 | 51.02918 | -0.09603 | 4700 ft | 256 kts | 290° |
| 2026-04-23 10:45 | 51.03533 | -0.12261 | 4540 ft | 257 kts | 290° |
| 2026-04-23 10:46 | 51.04149 | -0.14920 | 4361 ft | 256 kts | 290° |
| 2026-04-23 10:46 | 51.04761 | -0.17558 | 4196 ft | 253 kts | 290° |
| 2026-04-23 10:46 | 51.05365 | -0.20189 | 4038 ft | 254 kts | 290° |
| 2026-04-23 10:46 | 51.05969 | -0.22824 | 3877 ft | 254 kts | 290° |
| 2026-04-23 10:47 | 51.06576 | -0.25465 | 3688 ft | 254 kts | 291° |
| 2026-04-23 10:47 | 51.07180 | -0.28097 | 3522 ft | 254 kts | 290° |
| 2026-04-23 10:47 | 51.07829 | -0.30699 | 3341 ft | 250 kts | 301° |
| 2026-04-23 10:47 | 51.08976 | -0.32591 | 3187 ft | 230 kts | 334° |
| 2026-04-23 10:48 | 51.10408 | -0.33313 | 3077 ft | 206 kts | 6° |
| 2026-04-23 10:48 | 51.11716 | -0.32936 | 2875 ft | 188 kts | 30° |
| 2026-04-23 10:48 | 51.12739 | -0.31744 | 2344 ft | 178 kts | 54° |
| 2026-04-23 10:48 | 51.13289 | -0.30029 | 1770 ft | 175 kts | 77° |
| 2026-04-23 10:49 | 51.13550 | -0.28149 | 1252 ft | 164 kts | 77° |
| 2026-04-23 10:49 | 51.13781 | -0.26494 | 1027 ft | 143 kts | 77° |
| 2026-04-23 10:49 | 51.13988 | -0.25004 | 819 ft | 137 kts | 76° |
| 2026-04-23 10:49 | 51.14189 | -0.23548 | 619 ft | 131 kts | 75° |
| 2026-04-23 10:50 | 51.14388 | -0.22118 | 436 ft | 134 kts | 75° |
| 2026-04-23 10:50 | 51.14581 | -0.20687 | 267 ft | 132 kts | 77° |
| 2026-04-23 10:50 | 51.14771 | -0.19318 | 219 ft | 116 kts | 77° |
| 2026-04-23 10:50 | 51.14932 | -0.18214 | 210 ft | 84 kts | 76° |
| 2026-04-23 10:51 | 51.14997 | -0.17729 | 207 ft | 23 kts | 77° |
| 2026-04-23 10:51 | 51.15032 | -0.17479 | 211 ft | 23 kts | 77° |
| 2026-04-23 10:51 | 51.15091 | -0.17272 | 211 ft | 15 kts | 47° |
| 2026-04-23 10:51 | 51.15175 | -0.17234 | 214 ft | 14 kts | 327° |
| 2026-04-23 10:52 | 51.15228 | -0.17288 | 216 ft | 13 kts | 327° |
| 2026-04-23 10:52 | 51.15305 | -0.17348 | 212 ft | 12 kts | 340° |
| 2026-04-23 10:52 | 51.15390 | -0.17385 | 215 ft | 14 kts | 345° |
| 2026-04-23 10:52 | 51.15489 | -0.17417 | 207 ft | 16 kts | 350° |
| 2026-04-23 10:53 | 51.15531 | -0.17544 | 212 ft | 12 kts | 270° |
| 2026-04-23 10:53 | 51.15535 | -0.17655 | 212 ft | 8 kts | 315° |
| 2026-04-23 10:53 | 51.15580 | -0.17680 | 215 ft | 0 kts | 347° |